KDRT/DRT METAR and TAF weather

Enter ICAO airport designator
Station Type Date Time Source
KDRT METAR 2023/03/22 10:23 UTC NOAA

KDRT 221023Z AUTO 11010KT 6SM BR OVC004 19/18 A2995 RMK AO2 T01890178


Station Type Date Time Source
KDRT Decoded METAR 2023/03/22 10:23 UTC NOAA

DEL RIO INTERNATIONAL AIRPORT, TX, United States (KDRT) 29-22N 100-55W 313M
Mar 22, 2023 - 06:23 AM EDT / 2023.03.22 1023 UTC
Wind: from the ESE (110 degrees) at 12 MPH (10 KT):0
Visibility: 6 mile(s):0
Sky conditions: overcast
Weather: mist
Temperature: 66.0 F (18.9 C)
Dew Point: 64.0 F (17.8 C)
Relative Humidity: 93%
Pressure (altimeter): 29.95 in. Hg (1014 hPa)
ob: KDRT 221023Z AUTO 11010KT 6SM BR OVC004 19/18 A2995 RMK AO2 T01890178
cycle: 10

Station Type Date Time Source
KDRT TAF 2023/03/22 09:03 UTC NOAA

TAF
AMD KDRT 220901Z 2209/2306 12008KT 1/2SM FG OVC004
FM221200 11009KT 2SM BR OVC004
FM221700 13012KT P6SM OVC007
FM221800 14012KT P6SM BKN015
FM221900 14015KT P6SM SCT250

Example: see airport list